Time;durP1;ratioP1;P1;durP2;ratioP2;P2;SDS_P1;SDS_P2;PMS_P1;PMS_P2;Temp;Humidity;BMP_temperature;BMP_pressure;BME280_temperature;BME280_humidity;BME280_pressure;Samples;Min_cycle;Max_cycle;Signal;HPM_P1;HPM_P2
2022/07/16 00:02:37;;;;;;;;;;;;;;;21.66;28.85;97785.47;4916938;29;1227;-74
2022/07/16 00:05:03;;;;;;;;;;;;;;;21.76;28.84;97778.69;4920739;29;912;-74
2022/07/16 00:07:28;;;;;;;;;;;;;;;21.76;29.04;97777.88;4920382;29;1018;-74
2022/07/16 00:09:54;;;;;;;;;;;;;;;21.84;28.73;97777.22;4920703;29;957;-74
2022/07/16 00:12:19;;;;;;;;;;;;;;;21.79;28.78;97776.97;4920280;29;1008;-73
2022/07/16 00:14:45;;;;;;;;;;;;;;;21.94;28.68;97777.34;4920441;29;961;-74
2022/07/16 00:17:10;;;;;;;;;;;;;;;21.84;28.76;97771.53;4919885;29;1987;-74
2022/07/16 00:19:36;;;;;;;;;;;;;;;21.91;28.64;97775.41;4920717;29;923;-74
2022/07/16 00:22:01;;;;;;;;;;;;;;;21.98;28.37;97766.69;4920719;29;953;-74
2022/07/16 00:24:26;;;;;;;;;;;;;;;21.74;28.66;97764.16;4920150;29;922;-74
2022/07/16 00:26:52;;;;;;;;;;;;;;;22.01;28.39;97755.22;4880206;29;1228;-74
2022/07/16 00:29:18;;;;;;;;;;;;;;;21.68;29.10;97757.50;4898630;29;1190;-73
2022/07/16 00:31:44;;;;;;;;;;;;;;;21.51;29.17;97756.00;4880094;29;932;-75
2022/07/16 00:34:10;;;;;;;;;;;;;;;21.76;28.58;97755.22;4842671;29;1085;-74
2022/07/16 00:36:35;;;;;;;;;;;;;;;21.82;28.90;97753.44;4827650;29;1915;-73
2022/07/16 00:39:01;;;;;;;;;;;;;;;21.69;29.29;97753.41;4843026;29;982;-73
2022/07/16 00:41:26;;;;;;;;;;;;;;;21.72;28.74;97754.56;4843058;29;1097;-73
2022/07/16 00:43:52;;;;;;;;;;;;;;;21.79;29.03;97752.28;4842690;29;1071;-73
2022/07/16 00:46:18;;;;;;;;;;;;;;;21.89;28.57;97741.06;4842705;29;1078;-74
2022/07/16 00:48:44;;;;;;;;;;;;;;;21.76;28.65;97747.53;4843120;29;1082;-73
2022/07/16 00:51:09;;;;;;;;;;;;;;;21.77;28.52;97751.94;4842939;29;1034;-74
2022/07/16 00:53:35;;;;;;;;;;;;;;;21.76;28.89;97756.03;4842793;29;983;-74
2022/07/16 00:56:00;;;;;;;;;;;;;;;21.64;29.10;97745.47;4827107;29;1907;-74
2022/07/16 00:58:26;;;;;;;;;;;;;;;21.75;28.69;97751.59;4842481;29;992;-73
2022/07/16 01:00:51;;;;;;;;;;;;;;;21.70;28.77;97757.03;4855525;29;1256;-73
2022/07/16 01:03:17;;;;;;;;;;;;;;;21.74;28.67;97752.84;4851030;29;1172;-73
2022/07/16 01:05:42;;;;;;;;;;;;;;;21.90;28.43;97737.00;4903439;29;1103;-73
2022/07/16 01:08:08;;;;;;;;;;;;;;;21.65;28.90;97749.88;4916702;29;963;-74
2022/07/16 01:10:33;;;;;;;;;;;;;;;21.64;28.97;97748.31;4901253;29;926;-73
2022/07/16 01:12:59;;;;;;;;;;;;;;;21.57;29.09;97752.16;4917059;29;994;-74
2022/07/16 01:15:25;;;;;;;;;;;;;;;21.45;29.21;97740.78;4897776;29;1985;-74
2022/07/16 01:17:50;;;;;;;;;;;;;;;21.64;28.93;97742.66;4898092;29;1179;-74
2022/07/16 01:20:16;;;;;;;;;;;;;;;21.76;28.78;97741.88;4897919;29;950;-74
2022/07/16 01:22:41;;;;;;;;;;;;;;;21.84;28.57;97733.94;4897756;29;1204;-74
2022/07/16 01:25:07;;;;;;;;;;;;;;;21.85;28.57;97747.63;4860779;29;995;-74
2022/07/16 01:27:33;;;;;;;;;;;;;;;21.85;28.84;97730.63;4841759;29;1238;-74
2022/07/16 01:29:58;;;;;;;;;;;;;;;21.68;28.84;97743.34;4842051;29;1186;-73
2022/07/16 01:32:23;;;;;;;;;;;;;;;21.98;28.33;97738.38;4842224;29;971;-74
2022/07/16 01:34:49;;;;;;;;;;;;;;;21.60;28.98;97741.94;4841933;29;972;-73
2022/07/16 01:37:15;;;;;;;;;;;;;;;21.69;28.90;97747.75;4811739;29;1923;-73
2022/07/16 01:39:40;;;;;;;;;;;;;;;21.75;29.07;97748.75;4828853;29;1236;-74
2022/07/16 01:42:06;;;;;;;;;;;;;;;21.87;28.49;97738.72;4824112;29;1004;-73
2022/07/16 01:44:32;;;;;;;;;;;;;;;21.75;28.81;97737.44;4823921;29;976;-74
2022/07/16 01:46:57;;;;;;;;;;;;;;;21.78;28.94;97745.03;4837250;29;956;-73
2022/07/16 01:49:23;;;;;;;;;;;;;;;21.92;28.50;97743.00;4841904;29;1091;-74
2022/07/16 01:51:48;;;;;;;;;;;;;;;21.60;28.99;97750.44;4842258;29;984;-74
2022/07/16 01:54:14;;;;;;;;;;;;;;;21.81;28.78;97755.47;4842149;29;1019;-74
2022/07/16 01:56:39;;;;;;;;;;;;;;;21.76;28.79;97756.03;4851402;29;1984;-74
2022/07/16 01:59:05;;;;;;;;;;;;;;;21.66;29.06;97774.16;4897794;29;968;-73
2022/07/16 02:01:30;;;;;;;;;;;;;;;21.71;28.95;97776.41;4897787;29;1226;-74
2022/07/16 02:03:56;;;;;;;;;;;;;;;21.70;28.82;97774.81;4897372;29;1501;-74
2022/07/16 02:06:22;;;;;;;;;;;;;;;21.77;28.79;97763.28;4897709;29;1015;-75
2022/07/16 02:08:47;;;;;;;;;;;;;;;21.59;29.21;97757.34;4897744;29;993;-74
2022/07/16 02:11:12;;;;;;;;;;;;;;;21.57;29.02;97754.19;4897403;29;1077;-74
2022/07/16 02:13:38;;;;;;;;;;;;;;;21.82;28.58;97765.56;4897261;29;1242;-74
2022/07/16 02:16:03;;;;;;;;;;;;;;;21.79;28.91;97757.94;4897346;29;1907;-74
2022/07/16 02:18:29;;;;;;;;;;;;;;;21.71;28.76;97759.44;4897628;29;988;-73
2022/07/16 02:20:55;;;;;;;;;;;;;;;21.64;28.85;97756.81;4897461;29;1123;-73
2022/07/16 02:23:20;;;;;;;;;;;;;;;21.79;28.49;97765.66;4882077;29;1031;-74
2022/07/16 02:25:46;;;;;;;;;;;;;;;21.76;28.62;97760.88;4897647;29;986;-73
2022/07/16 02:28:11;;;;;;;;;;;;;;;21.85;28.38;97753.31;4897529;29;1042;-74
2022/07/16 02:30:43;;;;;;;;;;;;;;;21.66;28.96;97762.81;4897514;29;977;-74
2022/07/16 02:33:09;;;;;;;;;;;;;;;21.59;28.77;97763.81;4859888;29;980;-73
2022/07/16 02:35:35;;;;;;;;;;;;;;;21.57;28.85;97759.84;4855242;29;1994;-74
2022/07/16 02:38:00;;;;;;;;;;;;;;;21.66;28.75;97762.81;4860053;29;956;-74
2022/07/16 02:40:26;;;;;;;;;;;;;;;21.56;29.00;97766.78;4861740;29;1050;-74
2022/07/16 02:42:51;;;;;;;;;;;;;;;21.56;29.06;97752.63;4808306;29;1283;-74
2022/07/16 02:45:17;;;;;;;;;;;;;;;21.49;29.30;97766.97;4808715;29;1161;-73
2022/07/16 02:47:42;;;;;;;;;;;;;;;21.48;29.36;97762.56;4808732;29;1178;-73
2022/07/16 02:50:08;;;;;;;;;;;;;;;21.61;28.73;97771.88;4808368;29;986;-74
2022/07/16 02:52:33;;;;;;;;;;;;;;;21.50;28.90;97771.38;4808679;29;1107;-73
2022/07/16 02:54:59;;;;;;;;;;;;;;;21.56;29.08;97769.59;4808278;29;867;-73
2022/07/16 02:57:24;;;;;;;;;;;;;;;21.70;28.56;97763.47;4808395;29;1915;-73
2022/07/16 02:59:50;;;;;;;;;;;;;;;21.69;28.49;97773.22;4808430;29;1001;-74
2022/07/16 03:02:15;;;;;;;;;;;;;;;21.69;28.85;97766.78;4808210;29;1079;-73
2022/07/16 03:04:40;;;;;;;;;;;;;;;21.78;28.45;97776.19;4834312;29;1025;-73
2022/07/16 03:07:06;;;;;;;;;;;;;;;21.51;28.82;97773.00;4857961;29;1002;-73
2022/07/16 03:09:31;;;;;;;;;;;;;;;21.54;28.80;97772.06;4862992;29;1032;-73
2022/07/16 03:11:57;;;;;;;;;;;;;;;21.49;28.95;97776.25;4862912;29;976;-73
2022/07/16 03:14:22;;;;;;;;;;;;;;;21.81;28.49;97769.63;4904979;29;1020;-74
2022/07/16 03:16:48;;;;;;;;;;;;;;;21.71;28.66;97775.59;4921683;29;1935;-74
2022/07/16 03:19:14;;;;;;;;;;;;;;;21.64;28.92;97770.97;4921592;29;974;-74
2022/07/16 03:21:39;;;;;;;;;;;;;;;21.63;28.99;97774.25;4921513;29;975;-74
2022/07/16 03:24:05;;;;;;;;;;;;;;;21.62;28.81;97767.78;4921372;29;1113;-74
2022/07/16 03:26:30;;;;;;;;;;;;;;;21.72;28.70;97772.34;4920986;29;1006;-74
2022/07/16 03:28:56;;;;;;;;;;;;;;;21.67;28.81;97774.94;4921524;29;965;-74
2022/07/16 03:31:21;;;;;;;;;;;;;;;21.59;28.92;97780.00;4921634;29;976;-74
2022/07/16 03:33:46;;;;;;;;;;;;;;;21.82;28.52;97776.09;4921068;29;946;-74
2022/07/16 03:36:12;;;;;;;;;;;;;;;21.77;28.62;97787.97;4921356;29;1907;-74
2022/07/16 03:41:21;;;;;;;;;;;;;;;21.69;28.83;97778.91;4920909;29;912;-74
2022/07/16 03:43:46;;;;;;;;;;;;;;;21.76;28.44;97787.19;4902974;29;969;-74
2022/07/16 03:46:13;;;;;;;;;;;;;;;21.68;28.90;97785.81;4920802;29;958;-73
2022/07/16 03:48:39;;;;;;;;;;;;;;;21.57;29.05;97785.34;4921099;29;1033;-74
2022/07/16 03:51:06;;;;;;;;;;;;;;;21.69;28.76;97784.56;4898335;29;876;-73
2022/07/16 03:53:31;;;;;;;;;;;;;;;21.75;28.98;97782.75;4899498;29;1004;-74
2022/07/16 03:55:57;;;;;;;;;;;;;;;21.63;28.90;97786.38;4899120;29;1978;-73
2022/07/16 03:58:22;;;;;;;;;;;;;;;21.43;29.29;97777.25;4899337;29;964;-74
2022/07/16 04:00:48;;;;;;;;;;;;;;;21.44;29.35;97773.19;4899065;29;1057;-74
2022/07/16 04:03:14;;;;;;;;;;;;;;;21.63;29.25;97789.19;4883646;29;953;-74
2022/07/16 04:05:39;;;;;;;;;;;;;;;21.71;29.16;97792.59;4899413;29;964;-74
2022/07/16 04:08:04;;;;;;;;;;;;;;;21.62;29.01;97784.78;4898909;29;1025;-74
2022/07/16 04:10:30;;;;;;;;;;;;;;;21.59;29.09;97785.66;4899032;29;969;-73
2022/07/16 04:12:55;;;;;;;;;;;;;;;21.70;29.30;97786.13;4883177;29;1414;-73
2022/07/16 04:15:21;;;;;;;;;;;;;;;21.68;28.90;97790.69;4899304;29;1036;-74
2022/07/16 04:17:46;;;;;;;;;;;;;;;21.68;29.04;97797.13;4898900;29;1984;-74
2022/07/16 04:20:12;;;;;;;;;;;;;;;21.87;28.82;97791.72;4898930;29;962;-74
2022/07/16 04:22:37;;;;;;;;;;;;;;;21.46;29.61;97788.50;4914484;29;941;-74
2022/07/16 04:25:03;;;;;;;;;;;;;;;21.50;29.33;97789.19;4917665;29;940;-73
2022/07/16 04:27:28;;;;;;;;;;;;;;;21.51;29.31;97787.94;4901799;29;1020;-74
2022/07/16 04:29:54;;;;;;;;;;;;;;;21.52;29.37;97786.69;4921141;29;1075;-74
2022/07/16 04:32:21;;;;;;;;;;;;;;;21.52;29.54;97794.38;4936583;29;994;-73
2022/07/16 04:34:46;;;;;;;;;;;;;;;21.82;29.20;97798.75;4936659;29;1011;-74
2022/07/16 04:37:13;;;;;;;;;;;;;;;21.92;28.81;97794.00;4936519;29;2000;-73
2022/07/16 04:39:38;;;;;;;;;;;;;;;21.86;28.74;97805.06;4936314;29;1012;-74
2022/07/16 04:42:04;;;;;;;;;;;;;;;21.71;29.06;97810.41;4936608;29;970;-74
2022/07/16 04:44:29;;;;;;;;;;;;;;;21.71;29.13;97810.41;4936260;29;966;-73
2022/07/16 04:46:54;;;;;;;;;;;;;;;21.96;29.15;97811.66;4936501;29;985;-73
2022/07/16 04:49:20;;;;;;;;;;;;;;;21.96;28.77;97806.78;4936217;29;1124;-73
2022/07/16 04:51:45;;;;;;;;;;;;;;;21.67;29.12;97809.72;4920116;29;936;-75
2022/07/16 04:54:11;;;;;;;;;;;;;;;21.78;29.06;97813.00;4936275;29;960;-73
2022/07/16 04:56:36;;;;;;;;;;;;;;;21.49;29.52;97806.59;4937638;29;1907;-73
2022/07/16 04:59:02;;;;;;;;;;;;;;;21.68;29.30;97819.00;4938998;29;931;-73
2022/07/16 05:01:27;;;;;;;;;;;;;;;21.77;29.06;97817.09;4938729;29;1194;-74
2022/07/16 05:03:53;;;;;;;;;;;;;;;21.87;28.89;97822.88;4938355;29;978;-73
2022/07/16 05:06:18;;;;;;;;;;;;;;;21.77;28.88;97825.59;4938390;29;873;-74
2022/07/16 05:08:43;;;;;;;;;;;;;;;21.73;29.22;97835.44;4938763;29;912;-74
2022/07/16 05:11:10;;;;;;;;;;;;;;;21.94;29.15;97839.66;4938448;29;928;-74
2022/07/16 05:13:35;;;;;;;;;;;;;;;21.47;29.70;97840.22;4938055;29;1161;-73
2022/07/16 05:16:01;;;;;;;;;;;;;;;21.56;29.53;97832.69;4938325;29;1975;-73
2022/07/16 05:18:27;;;;;;;;;;;;;;;21.65;29.47;97832.00;4938465;29;949;-74
2022/07/16 05:20:52;;;;;;;;;;;;;;;21.65;29.68;97840.50;4935847;29;1082;-73
2022/07/16 05:23:17;;;;;;;;;;;;;;;21.54;29.89;97834.34;4935695;29;983;-73
2022/07/16 05:25:43;;;;;;;;;;;;;;;21.83;29.31;97837.16;4935624;29;958;-73
2022/07/16 05:28:09;;;;;;;;;;;;;;;21.81;29.17;97837.59;4935879;29;1097;-73
2022/07/16 05:30:34;;;;;;;;;;;;;;;21.78;29.40;97838.50;4897441;29;1379;-74
2022/07/16 05:33:00;;;;;;;;;;;;;;;21.71;29.64;97835.88;4898065;29;1007;-74
2022/07/16 05:35:25;;;;;;;;;;;;;;;21.79;29.32;97834.41;4897602;29;968;-74
2022/07/16 05:37:51;;;;;;;;;;;;;;;21.84;29.38;97845.19;4897621;29;1958;-73
2022/07/16 05:40:16;;;;;;;;;;;;;;;21.83;29.18;97849.28;4897537;29;1001;-74
2022/07/16 05:42:42;;;;;;;;;;;;;;;21.77;29.54;97844.63;4897910;29;972;-73
2022/07/16 05:45:08;;;;;;;;;;;;;;;21.70;29.37;97850.47;4897860;29;1148;-74
2022/07/16 05:47:33;;;;;;;;;;;;;;;21.67;29.47;97855.03;4897797;29;1040;-73
2022/07/16 05:50:05;;;;;;;;;;;;;;;21.75;29.35;97855.59;4897292;29;936;-73
2022/07/16 05:52:30;;;;;;;;;;;;;;;21.72;29.57;97854.47;4868730;29;1383;-73
2022/07/16 05:54:56;;;;;;;;;;;;;;;21.77;29.72;97862.41;4860527;29;1004;-74
2022/07/16 05:57:21;;;;;;;;;;;;;;;22.07;29.28;97860.28;4859992;29;1988;-73
2022/07/16 05:59:47;;;;;;;;;;;;;;;21.83;29.69;97863.44;4841845;29;983;-73
2022/07/16 06:02:12;;;;;;;;;;;;;;;21.84;29.49;97865.00;4869781;29;1072;-73
2022/07/16 06:04:38;;;;;;;;;;;;;;;21.74;29.66;97859.66;4878759;29;1002;-73
2022/07/16 06:07:03;;;;;;;;;;;;;;;21.76;29.63;97869.31;4878832;29;931;-73
2022/07/16 06:09:28;;;;;;;;;;;;;;;21.71;29.78;97861.38;4859786;29;992;-74
2022/07/16 06:11:54;;;;;;;;;;;;;;;21.81;29.77;97871.59;4860394;29;969;-73
2022/07/16 06:14:19;;;;;;;;;;;;;;;21.95;29.48;97878.06;4860397;29;1032;-74
2022/07/16 06:16:45;;;;;;;;;;;;;;;21.82;29.57;97873.19;4864279;29;1986;-73
2022/07/16 06:19:10;;;;;;;;;;;;;;;21.71;29.89;97884.03;4863796;29;920;-73
2022/07/16 06:21:36;;;;;;;;;;;;;;;22.00;29.51;97877.50;4849996;29;981;-74
2022/07/16 06:24:01;;;;;;;;;;;;;;;21.84;29.52;97879.19;4845370;29;992;-73
2022/07/16 06:26:27;;;;;;;;;;;;;;;21.76;29.89;97872.16;4845270;29;978;-73
2022/07/16 06:28:52;;;;;;;;;;;;;;;21.63;30.00;97871.31;4830142;29;961;-73
2022/07/16 06:31:17;;;;;;;;;;;;;;;21.70;29.88;97878.78;4858077;29;985;-73
2022/07/16 06:33:43;;;;;;;;;;;;;;;21.71;30.05;97877.53;4863703;29;1180;-73
2022/07/16 06:36:08;;;;;;;;;;;;;;;21.84;29.90;97873.50;4903194;29;1986;-74
2022/07/16 06:38:34;;;;;;;;;;;;;;;21.71;29.82;97872.69;4919801;29;950;-73
2022/07/16 06:40:59;;;;;;;;;;;;;;;21.77;29.87;97882.22;4934860;29;972;-73
2022/07/16 06:43:25;;;;;;;;;;;;;;;21.93;29.60;97877.72;4941345;29;920;-74
2022/07/16 06:45:50;;;;;;;;;;;;;;;21.92;29.96;97879.78;4940997;29;989;-73
2022/07/16 06:48:16;;;;;;;;;;;;;;;21.94;29.94;97874.44;4941074;29;891;-74
2022/07/16 06:50:41;;;;;;;;;;;;;;;21.88;29.86;97872.63;4940700;29;1058;-74
2022/07/16 06:53:07;;;;;;;;;;;;;;;21.92;29.74;97871.28;4940983;29;970;-73
2022/07/16 06:55:32;;;;;;;;;;;;;;;21.90;29.77;97873.75;4900112;29;1907;-74
2022/07/16 06:57:58;;;;;;;;;;;;;;;21.87;29.91;97879.53;4900719;29;962;-73
2022/07/16 07:00:23;;;;;;;;;;;;;;;22.02;29.65;97875.00;4900618;29;1041;-73
2022/07/16 07:02:49;;;;;;;;;;;;;;;21.67;30.36;97874.84;4900475;29;1089;-73
2022/07/16 07:05:14;;;;;;;;;;;;;;;21.67;30.34;97860.69;4900124;29;1116;-73
2022/07/16 07:07:40;;;;;;;;;;;;;;;21.72;30.57;97874.28;4900431;29;1117;-74
2022/07/16 07:10:05;;;;;;;;;;;;;;;21.73;30.31;97869.41;4900275;29;1144;-74
2022/07/16 07:12:31;;;;;;;;;;;;;;;21.85;30.09;97877.13;4900184;29;993;-73
2022/07/16 07:14:57;;;;;;;;;;;;;;;21.88;30.36;97872.63;4884447;29;1387;-73
2022/07/16 07:17:22;;;;;;;;;;;;;;;21.91;29.95;97877.38;4900254;29;1927;-73
2022/07/16 07:19:48;;;;;;;;;;;;;;;22.05;29.72;97880.56;4900181;29;977;-73
2022/07/16 07:22:13;;;;;;;;;;;;;;;21.95;30.26;97889.41;4881306;29;1012;-74
2022/07/16 07:24:39;;;;;;;;;;;;;;;21.98;30.12;97891.34;4881095;29;1005;-73
2022/07/16 07:27:05;;;;;;;;;;;;;;;21.99;30.09;97890.09;4894189;29;1055;-74
2022/07/16 07:29:31;;;;;;;;;;;;;;;22.03;29.97;97893.63;4899705;29;984;-74
2022/07/16 07:31:56;;;;;;;;;;;;;;;22.02;30.04;97898.50;4899978;29;1066;-74
2022/07/16 07:34:22;;;;;;;;;;;;;;;21.88;30.69;97898.91;4899698;29;1124;-74
2022/07/16 07:36:48;;;;;;;;;;;;;;;21.95;30.33;97903.56;4899476;29;1981;-74
2022/07/16 07:39:13;;;;;;;;;;;;;;;21.80;30.42;97900.34;4899605;29;1014;-74
2022/07/16 07:41:39;;;;;;;;;;;;;;;21.87;30.49;97905.03;4899994;29;1125;-74
2022/07/16 07:44:04;;;;;;;;;;;;;;;21.80;30.69;97903.97;4899444;29;1104;-74
2022/07/16 07:46:30;;;;;;;;;;;;;;;21.93;30.49;97901.19;4899569;29;1011;-74
2022/07/16 07:48:55;;;;;;;;;;;;;;;21.98;30.45;97905.50;4888959;29;1234;-74
2022/07/16 07:51:20;;;;;;;;;;;;;;;21.91;30.44;97912.16;4886184;29;1292;-74
2022/07/16 07:53:46;;;;;;;;;;;;;;;21.96;30.59;97903.09;4897891;29;1059;-74
2022/07/16 07:56:12;;;;;;;;;;;;;;;22.02;30.45;97914.66;4939846;29;1985;-74
2022/07/16 07:58:38;;;;;;;;;;;;;;;22.02;30.27;97909.81;4939348;29;1193;-74
2022/07/16 08:01:03;;;;;;;;;;;;;;;22.01;30.26;97905.38;4939561;29;1228;-74
2022/07/16 08:03:29;;;;;;;;;;;;;;;22.15;30.22;97912.69;4939324;29;992;-74
2022/07/16 08:05:54;;;;;;;;;;;;;;;21.98;30.28;97914.00;4939566;29;999;-74
2022/07/16 08:08:20;;;;;;;;;;;;;;;22.04;30.24;97912.19;4939454;29;992;-74
2022/07/16 08:10:45;;;;;;;;;;;;;;;21.82;30.93;97921.31;4939489;29;1161;-74
2022/07/16 08:13:10;;;;;;;;;;;;;;;21.78;30.63;97912.13;4939525;29;914;-74
2022/07/16 08:15:36;;;;;;;;;;;;;;;21.94;30.53;97918.97;4938883;29;1915;-74
2022/07/16 08:18:01;;;;;;;;;;;;;;;21.95;30.69;97915.69;4939099;29;840;-74
2022/07/16 08:20:27;;;;;;;;;;;;;;;22.00;30.37;97914.34;4938879;29;931;-75
2022/07/16 08:22:52;;;;;;;;;;;;;;;22.06;30.21;97915.38;4939039;29;950;-74
2022/07/16 08:28:02;;;;;;;;;;;;;;;22.03;30.40;97917.06;4934139;29;1125;-74
2022/07/16 08:30:27;;;;;;;;;;;;;;;21.85;30.59;97911.91;4896518;29;1293;-74
2022/07/16 08:32:53;;;;;;;;;;;;;;;21.85;30.92;97917.59;4928755;29;1201;-74
2022/07/16 08:35:18;;;;;;;;;;;;;;;21.85;30.70;97917.59;4907284;29;1248;-74
2022/07/16 08:37:44;;;;;;;;;;;;;;;22.05;30.64;97913.78;4908016;29;1986;-74
2022/07/16 08:40:11;;;;;;;;;;;;;;;22.03;30.37;97907.78;4904176;29;1209;-74
2022/07/16 08:42:36;;;;;;;;;;;;;;;22.01;30.75;97924.41;4907619;29;1275;-74
2022/07/16 08:45:03;;;;;;;;;;;;;;;22.00;30.80;97920.00;4908072;29;1269;-74
2022/07/16 08:47:29;;;;;;;;;;;;;;;21.95;30.81;97917.72;4887751;29;1924;-74
2022/07/16 08:49:55;;;;;;;;;;;;;;;21.92;30.74;97921.47;4867255;29;921;-73
2022/07/16 08:52:21;;;;;;;;;;;;;;;21.91;30.96;97922.69;4898824;29;1245;-74
2022/07/16 08:54:47;;;;;;;;;;;;;;;22.02;30.58;97926.00;4882558;29;1264;-73
2022/07/16 08:57:13;;;;;;;;;;;;;;;22.00;30.62;97925.66;4901563;29;1984;-74
2022/07/16 08:59:38;;;;;;;;;;;;;;;22.15;30.76;97918.38;4869666;29;1218;-74
2022/07/16 09:02:04;;;;;;;;;;;;;;;22.03;30.80;97933.28;4863200;29;1238;-73
2022/07/16 09:04:29;;;;;;;;;;;;;;;22.05;30.55;97925.13;4860822;29;1085;-74
2022/07/16 09:06:55;;;;;;;;;;;;;;;22.07;30.97;97933.94;4861107;29;1160;-74
2022/07/16 09:09:20;;;;;;;;;;;;;;;22.22;30.36;97940.81;4861088;29;984;-73
2022/07/16 09:11:46;;;;;;;;;;;;;;;22.07;30.90;97931.13;4860783;29;1017;-73
2022/07/16 09:14:15;;;;;;;;;;;;;;;22.02;30.75;97937.34;4861021;29;970;-74
2022/07/16 09:16:50;;;;;;;;;;;;;;;22.01;30.75;97936.53;4830048;29;1911;-73
2022/07/16 09:19:17;;;;;;;;;;;;;;;22.04;30.74;97940.53;4860778;29;1031;-75
2022/07/16 09:21:58;;;;;;;;;;;;;;;22.14;30.80;97942.28;4824010;29;1022;-73
2022/07/16 09:24:29;;;;;;;;;;;;;;;22.04;30.70;97941.31;4824040;29;956;-74
2022/07/16 09:27:21;;;;;;;;;;;;;;;22.27;30.65;97945.13;4824080;29;1062;-74
2022/07/16 09:29:48;;;;;;;;;;;;;;;22.10;30.62;97938.72;4822804;29;1040;-74
2022/07/16 09:32:26;;;;;;;;;;;;;;;22.14;30.63;97950.78;4823889;29;1074;-73
2022/07/16 09:35:01;;;;;;;;;;;;;;;22.28;30.55;97941.88;4823600;29;1391;-73
2022/07/16 09:37:26;;;;;;;;;;;;;;;22.30;30.39;97947.06;4847429;29;1990;-73
2022/07/16 09:39:52;;;;;;;;;;;;;;;22.20;30.38;97948.97;4860380;29;1152;-74
2022/07/16 09:42:18;;;;;;;;;;;;;;;22.35;30.27;97946.53;4860407;29;1121;-74
2022/07/16 09:44:43;;;;;;;;;;;;;;;22.27;30.22;97954.44;4860557;29;1206;-75
2022/07/16 09:47:10;;;;;;;;;;;;;;;21.97;30.95;97941.53;4860670;29;981;-74
2022/07/16 09:49:37;;;;;;;;;;;;;;;22.03;30.78;97938.94;4862764;29;999;-74
2022/07/16 09:52:05;;;;;;;;;;;;;;;22.24;30.42;97938.34;4849619;29;1188;-74
2022/07/16 09:54:39;;;;;;;;;;;;;;;22.32;30.29;97934.03;4864189;29;1130;-74
2022/07/16 09:57:05;;;;;;;;;;;;;;;22.23;30.58;97936.75;4864130;29;1919;-73
2022/07/16 09:59:31;;;;;;;;;;;;;;;22.10;30.67;97938.72;4864270;29;1068;-74
2022/07/16 10:01:56;;;;;;;;;;;;;;;22.15;30.75;97943.88;4864434;29;1043;-74
2022/07/16 10:04:23;;;;;;;;;;;;;;;22.14;30.94;97933.00;4863926;29;996;-74
2022/07/16 10:06:49;;;;;;;;;;;;;;;22.14;30.54;97933.78;4848899;29;948;-74
2022/07/16 10:09:14;;;;;;;;;;;;;;;22.09;30.76;97937.16;4863894;29;1128;-74
2022/07/16 10:11:41;;;;;;;;;;;;;;;21.97;31.20;97935.09;4845282;29;1021;-74
2022/07/16 10:14:06;;;;;;;;;;;;;;;21.98;30.93;97934.63;4845490;29;1131;-74
2022/07/16 10:16:41;;;;;;;;;;;;;;;22.22;30.82;97935.16;4833051;29;2176;-74
2022/07/16 10:19:07;;;;;;;;;;;;;;;22.14;30.56;97933.78;4827226;29;1006;-75
2022/07/16 10:21:32;;;;;;;;;;;;;;;22.19;30.94;97936.06;4827164;29;1063;-74
2022/07/16 10:24:07;;;;;;;;;;;;;;;22.17;30.92;97934.91;4859628;29;1100;-74
2022/07/16 10:26:33;;;;;;;;;;;;;;;22.12;30.73;97927.75;4863958;29;1061;-73
2022/07/16 10:28:59;;;;;;;;;;;;;;;22.01;30.99;97942.22;4863699;29;1077;-74
2022/07/16 10:31:30;;;;;;;;;;;;;;;22.18;30.99;97945.81;4863480;29;1016;-74
2022/07/16 10:34:11;;;;;;;;;;;;;;;22.14;31.04;97939.47;4863578;29;1019;-74
2022/07/16 10:36:50;;;;;;;;;;;;;;;22.15;30.76;97941.03;4863596;29;1911;-73
2022/07/16 10:39:15;;;;;;;;;;;;;;;22.08;31.04;97929.91;4844869;29;982;-74
2022/07/16 10:41:51;;;;;;;;;;;;;;;22.17;30.66;97938.53;4844792;29;987;-74
2022/07/16 10:44:16;;;;;;;;;;;;;;;22.15;31.04;97940.25;4844931;29;1110;-74
2022/07/16 10:46:55;;;;;;;;;;;;;;;22.11;30.83;97937.50;4844787;29;1070;-74
2022/07/16 10:49:21;;;;;;;;;;;;;;;22.14;30.82;97939.47;4840472;29;1036;-74
2022/07/16 10:51:52;;;;;;;;;;;;;;;22.03;30.93;97939.75;4863194;29;1228;-74
2022/07/16 10:54:18;;;;;;;;;;;;;;;22.03;30.99;97936.91;4826322;29;1243;-74
2022/07/16 10:56:47;;;;;;;;;;;;;;;22.33;30.67;97929.97;4826194;29;1982;-74
2022/07/16 10:59:13;;;;;;;;;;;;;;;22.23;30.98;97933.13;4829415;29;961;-74
2022/07/16 11:01:39;;;;;;;;;;;;;;;22.21;30.82;97932.78;4828653;29;1201;-73
2022/07/16 11:04:05;;;;;;;;;;;;;;;22.17;30.83;97927.19;4808040;29;1072;-74
2022/07/16 11:06:31;;;;;;;;;;;;;;;22.20;30.98;97931.19;4807830;29;1020;-74
2022/07/16 11:08:56;;;;;;;;;;;;;;;22.32;30.83;97928.34;4825981;29;1013;-74
2022/07/16 11:11:22;;;;;;;;;;;;;;;22.14;31.08;97933.78;4826297;29;1035;-74
2022/07/16 11:13:48;;;;;;;;;;;;;;;22.28;30.87;97932.56;4826053;29;954;-74
2022/07/16 11:16:14;;;;;;;;;;;;;;;22.30;30.82;97924.41;4825765;29;1986;-73
2022/07/16 11:18:39;;;;;;;;;;;;;;;22.16;31.26;97925.63;4826097;29;1078;-74
2022/07/16 11:21:05;;;;;;;;;;;;;;;22.34;30.62;97925.88;4825830;29;957;-74
2022/07/16 11:23:45;;;;;;;;;;;;;;;22.12;30.91;97924.94;4825476;29;996;-74
2022/07/16 11:26:10;;;;;;;;;;;;;;;22.11;31.23;97917.66;4857617;29;1371;-74
2022/07/16 11:28:36;;;;;;;;;;;;;;;22.12;31.41;97924.13;4862427;29;961;-73
2022/07/16 11:31:05;;;;;;;;;;;;;;;22.18;30.93;97928.81;4859995;29;1094;-73
2022/07/16 11:33:34;;;;;;;;;;;;;;;22.23;31.11;97925.41;4862326;29;1638;-74
2022/07/16 11:36:03;;;;;;;;;;;;;;;22.10;31.15;97925.38;4878632;29;1972;-73
2022/07/16 11:38:28;;;;;;;;;;;;;;;22.18;31.12;97923.16;4844566;29;2123;-73
2022/07/16 11:40:55;;;;;;;;;;;;;;;22.35;30.78;97926.69;4874172;29;1640;-74
2022/07/16 11:43:26;;;;;;;;;;;;;;;22.34;30.93;97925.88;4876334;29;1507;-73
2022/07/16 11:45:52;;;;;;;;;;;;;;;22.22;30.99;97929.47;4888926;29;1465;-74
2022/07/16 11:48:19;;;;;;;;;;;;;;;22.47;30.55;97919.41;4890215;29;1529;-73
2022/07/16 11:50:44;;;;;;;;;;;;;;;22.44;30.61;97923.97;4888523;29;1500;-74
2022/07/16 11:53:11;;;;;;;;;;;;;;;22.27;30.96;97931.75;4890821;29;1609;-74
2022/07/16 11:55:43;;;;;;;;;;;;;;;22.05;31.25;97925.13;4889392;29;1747;-74
2022/07/16 11:58:10;;;;;;;;;;;;;;;22.19;31.21;97930.41;4872878;29;1300;-74
2022/07/16 12:00:45;;;;;;;;;;;;;;;22.30;31.00;97925.19;4900026;29;1731;-74
2022/07/16 12:03:10;;;;;;;;;;;;;;;22.21;31.07;97927.91;4921146;29;1045;-74
2022/07/16 12:05:36;;;;;;;;;;;;;;;22.31;30.85;97920.31;4920977;29;982;-74
2022/07/16 12:08:03;;;;;;;;;;;;;;;22.33;30.81;97918.63;4920184;29;999;-74
2022/07/16 12:10:28;;;;;;;;;;;;;;;22.15;31.09;97924.03;4917805;29;1092;-74
2022/07/16 12:13:02;;;;;;;;;;;;;;;22.12;31.09;97915.63;4917181;29;1018;-73
2022/07/16 12:15:28;;;;;;;;;;;;;;;22.22;31.05;97911.69;4918135;29;987;-73
2022/07/16 12:17:53;;;;;;;;;;;;;;;22.09;31.42;97918.09;4917732;29;1965;-74
2022/07/16 12:20:21;;;;;;;;;;;;;;;22.26;31.01;97921.66;4901915;29;971;-74
2022/07/16 12:22:59;;;;;;;;;;;;;;;22.42;30.75;97922.81;4925011;29;1405;-73
2022/07/16 12:25:28;;;;;;;;;;;;;;;22.17;31.14;97921.53;4886028;29;1658;-74
2022/07/16 12:27:57;;;;;;;;;;;;;;;22.29;31.02;97923.63;4890030;29;1620;-73
2022/07/16 12:30:42;;;;;;;;;;;;;;;22.31;30.89;97923.94;4887662;29;1608;-75
2022/07/16 12:33:09;;;;;;;;;;;;;;;22.54;30.88;97927.72;4886859;29;1610;-74
2022/07/16 12:35:37;;;;;;;;;;;;;;;22.42;30.67;97925.66;4890265;29;1510;-75
2022/07/16 12:38:03;;;;;;;;;;;;;;;22.55;30.60;97929.31;4888476;29;1911;-74
2022/07/16 12:40:28;;;;;;;;;;;;;;;22.39;30.92;97918.88;4886864;29;1304;-74
2022/07/16 12:42:54;;;;;;;;;;;;;;;22.25;31.28;97928.59;4871395;29;1588;-74
2022/07/16 12:45:19;;;;;;;;;;;;;;;22.21;31.03;97916.56;4871360;29;1633;-73
2022/07/16 12:47:45;;;;;;;;;;;;;;;22.30;31.07;97919.53;4870037;29;1566;-74
2022/07/16 12:50:10;;;;;;;;;;;;;;;22.12;31.40;97919.25;4869450;29;1542;-75
2022/07/16 12:52:35;;;;;;;;;;;;;;;22.22;30.96;97918.13;4870879;29;1492;-75
2022/07/16 13:00:28;;;;;;;;;;;;;;;22.10;31.30;97914.03;4925940;29;1435;-74
2022/07/16 13:02:54;;;;;;;;;;;;;;;22.39;30.96;97901.06;4929712;29;1525;-74
2022/07/16 13:05:19;;;;;;;;;;;;;;;22.17;31.09;97903.75;4933712;29;1672;-75
2022/07/16 13:07:45;;;;;;;;;;;;;;;22.10;31.32;97891.38;4935869;29;1150;-75